sensor_id;sensor_type;location;lat;lon;timestamp;temperature;humidity
68912;SHT31;55953;51.650;-0.522;2022-10-16T00:01:43;11.78;79.56
68912;SHT31;55953;51.650;-0.522;2022-10-16T00:04:12;11.75;79.64
68912;SHT31;55953;51.650;-0.522;2022-10-16T00:06:40;11.68;79.80
68912;SHT31;55953;51.650;-0.522;2022-10-16T00:09:08;11.60;80.07
68912;SHT31;55953;51.650;-0.522;2022-10-16T00:11:38;11.56;80.13
68912;SHT31;55953;51.650;-0.522;2022-10-16T00:14:12;11.54;80.26
68912;SHT31;55953;51.650;-0.522;2022-10-16T00:16:42;11.54;80.19
68912;SHT31;55953;51.650;-0.522;2022-10-16T00:19:10;11.54;80.21
68912;SHT31;55953;51.650;-0.522;2022-10-16T00:21:39;11.53;80.24
68912;SHT31;55953;51.650;-0.522;2022-10-16T00:24:08;11.50;80.25
68912;SHT31;55953;51.650;-0.522;2022-10-16T00:26:38;11.48;80.28
68912;SHT31;55953;51.650;-0.522;2022-10-16T00:29:07;11.51;80.12
68912;SHT31;55953;51.650;-0.522;2022-10-16T00:31:36;11.51;80.09
68912;SHT31;55953;51.650;-0.522;2022-10-16T00:34:04;11.55;79.92
68912;SHT31;55953;51.650;-0.522;2022-10-16T00:36:32;11.61;79.81
68912;SHT31;55953;51.650;-0.522;2022-10-16T00:39:00;11.65;79.71
68912;SHT31;55953;51.650;-0.522;2022-10-16T00:41:30;11.66;79.68
68912;SHT31;55953;51.650;-0.522;2022-10-16T00:43:59;11.70;79.63
68912;SHT31;55953;51.650;-0.522;2022-10-16T00:46:34;11.74;79.56
68912;SHT31;55953;51.650;-0.522;2022-10-16T00:49:12;11.76;79.49
68912;SHT31;55953;51.650;-0.522;2022-10-16T00:51:45;11.79;79.34
68912;SHT31;55953;51.650;-0.522;2022-10-16T00:54:18;11.80;79.33
68912;SHT31;55953;51.650;-0.522;2022-10-16T00:56:52;11.75;79.51
68912;SHT31;55953;51.650;-0.522;2022-10-16T00:59:25;11.70;79.59
68912;SHT31;55953;51.650;-0.522;2022-10-16T01:01:57;11.66;79.69
68912;SHT31;55953;51.650;-0.522;2022-10-16T01:04:27;11.64;79.69
68912;SHT31;55953;51.650;-0.522;2022-10-16T01:07:30;11.59;79.76
68912;SHT31;55953;51.650;-0.522;2022-10-16T01:10:27;11.54;79.92
68912;SHT31;55953;51.650;-0.522;2022-10-16T01:13:22;11.51;80.02
68912;SHT31;55953;51.650;-0.522;2022-10-16T01:16:03;11.48;80.14
68912;SHT31;55953;51.650;-0.522;2022-10-16T01:18:54;11.44;80.31
68912;SHT31;55953;51.650;-0.522;2022-10-16T01:21:53;11.41;80.37
68912;SHT31;55953;51.650;-0.522;2022-10-16T01:27:09;11.38;80.66
68912;SHT31;55953;51.650;-0.522;2022-10-16T01:32:33;11.50;80.41
68912;SHT31;55953;51.650;-0.522;2022-10-16T01:35:11;11.55;80.29
68912;SHT31;55953;51.650;-0.522;2022-10-16T01:37:50;11.61;79.95
68912;SHT31;55953;51.650;-0.522;2022-10-16T01:40:34;11.66;79.65
68912;SHT31;55953;51.650;-0.522;2022-10-16T01:43:20;11.71;79.49
68912;SHT31;55953;51.650;-0.522;2022-10-16T01:45:54;11.76;79.24
68912;SHT31;55953;51.650;-0.522;2022-10-16T01:48:23;11.76;79.12
68912;SHT31;55953;51.650;-0.522;2022-10-16T01:50:54;11.77;78.89
68912;SHT31;55953;51.650;-0.522;2022-10-16T01:53:30;11.77;78.63
68912;SHT31;55953;51.650;-0.522;2022-10-16T01:56:00;11.77;78.37
68912;SHT31;55953;51.650;-0.522;2022-10-16T01:58:35;11.78;78.26
68912;SHT31;55953;51.650;-0.522;2022-10-16T02:01:11;11.72;78.24
68912;SHT31;55953;51.650;-0.522;2022-10-16T02:03:45;11.70;78.13
68912;SHT31;55953;51.650;-0.522;2022-10-16T02:06:19;11.68;77.92
68912;SHT31;55953;51.650;-0.522;2022-10-16T02:08:48;11.65;77.84
68912;SHT31;55953;51.650;-0.522;2022-10-16T02:11:16;11.62;77.63
68912;SHT31;55953;51.650;-0.522;2022-10-16T02:13:45;11.61;77.61
68912;SHT31;55953;51.650;-0.522;2022-10-16T02:16:18;11.59;77.57
68912;SHT31;55953;51.650;-0.522;2022-10-16T02:18:46;11.56;77.57
68912;SHT31;55953;51.650;-0.522;2022-10-16T02:21:39;11.56;77.44
68912;SHT31;55953;51.650;-0.522;2022-10-16T02:24:20;11.56;77.37
68912;SHT31;55953;51.650;-0.522;2022-10-16T02:27:15;11.53;77.41
68912;SHT31;55953;51.650;-0.522;2022-10-16T02:30:30;11.48;77.50
68912;SHT31;55953;51.650;-0.522;2022-10-16T02:33:20;11.44;77.47
68912;SHT31;55953;51.650;-0.522;2022-10-16T02:35:49;11.42;77.58
68912;SHT31;55953;51.650;-0.522;2022-10-16T02:38:19;11.38;77.67
68912;SHT31;55953;51.650;-0.522;2022-10-16T02:40:49;11.34;77.78
68912;SHT31;55953;51.650;-0.522;2022-10-16T02:43:17;11.30;77.89
68912;SHT31;55953;51.650;-0.522;2022-10-16T02:45:46;11.25;78.00
68912;SHT31;55953;51.650;-0.522;2022-10-16T02:48:14;11.24;77.99
68912;SHT31;55953;51.650;-0.522;2022-10-16T02:50:42;11.22;78.15
68912;SHT31;55953;51.650;-0.522;2022-10-16T02:53:10;11.20;78.14
68912;SHT31;55953;51.650;-0.522;2022-10-16T02:55:38;11.21;77.99
68912;SHT31;55953;51.650;-0.522;2022-10-16T02:58:06;11.25;77.92
68912;SHT31;55953;51.650;-0.522;2022-10-16T03:00:34;11.26;77.91
68912;SHT31;55953;51.650;-0.522;2022-10-16T03:03:02;11.26;78.02
68912;SHT31;55953;51.650;-0.522;2022-10-16T03:05:30;11.21;78.11
68912;SHT31;55953;51.650;-0.522;2022-10-16T03:07:58;11.17;78.31
68912;SHT31;55953;51.650;-0.522;2022-10-16T03:10:28;11.13;78.51
68912;SHT31;55953;51.650;-0.522;2022-10-16T03:12:56;11.09;78.58
68912;SHT31;55953;51.650;-0.522;2022-10-16T03:15:24;11.04;78.85
68912;SHT31;55953;51.650;-0.522;2022-10-16T03:17:53;10.99;79.05
68912;SHT31;55953;51.650;-0.522;2022-10-16T03:20:21;10.96;79.17
68912;SHT31;55953;51.650;-0.522;2022-10-16T03:22:49;10.94;79.23
68912;SHT31;55953;51.650;-0.522;2022-10-16T03:25:17;10.91;79.42
68912;SHT31;55953;51.650;-0.522;2022-10-16T03:27:45;10.86;79.64
68912;SHT31;55953;51.650;-0.522;2022-10-16T03:30:12;10.84;79.60
68912;SHT31;55953;51.650;-0.522;2022-10-16T03:32:40;10.81;79.76
68912;SHT31;55953;51.650;-0.522;2022-10-16T03:35:08;10.76;79.95
68912;SHT31;55953;51.650;-0.522;2022-10-16T03:37:36;10.72;80.06
68912;SHT31;55953;51.650;-0.522;2022-10-16T03:40:04;10.66;80.26
68912;SHT31;55953;51.650;-0.522;2022-10-16T03:42:34;10.59;80.49
68912;SHT31;55953;51.650;-0.522;2022-10-16T03:45:01;10.55;80.61
68912;SHT31;55953;51.650;-0.522;2022-10-16T03:47:30;10.53;80.78
68912;SHT31;55953;51.650;-0.522;2022-10-16T03:50:00;10.53;81.04
68912;SHT31;55953;51.650;-0.522;2022-10-16T03:52:28;10.52;81.21
68912;SHT31;55953;51.650;-0.522;2022-10-16T03:54:56;10.51;81.32
68912;SHT31;55953;51.650;-0.522;2022-10-16T03:57:25;10.48;81.40
68912;SHT31;55953;51.650;-0.522;2022-10-16T03:59:53;10.44;81.64
68912;SHT31;55953;51.650;-0.522;2022-10-16T04:02:21;10.41;81.73
68912;SHT31;55953;51.650;-0.522;2022-10-16T04:04:49;10.39;81.83
68912;SHT31;55953;51.650;-0.522;2022-10-16T04:07:17;10.38;81.92
68912;SHT31;55953;51.650;-0.522;2022-10-16T04:09:45;10.33;81.95
68912;SHT31;55953;51.650;-0.522;2022-10-16T04:12:13;10.29;82.12
68912;SHT31;55953;51.650;-0.522;2022-10-16T04:14:40;10.29;82.25
68912;SHT31;55953;51.650;-0.522;2022-10-16T04:17:08;10.25;82.25
68912;SHT31;55953;51.650;-0.522;2022-10-16T04:19:36;10.23;82.37
68912;SHT31;55953;51.650;-0.522;2022-10-16T04:22:05;10.18;82.46
68912;SHT31;55953;51.650;-0.522;2022-10-16T04:24:33;10.16;82.58
68912;SHT31;55953;51.650;-0.522;2022-10-16T04:27:00;10.13;82.70
68912;SHT31;55953;51.650;-0.522;2022-10-16T04:29:28;10.10;82.72
68912;SHT31;55953;51.650;-0.522;2022-10-16T04:31:56;10.07;82.86
68912;SHT31;55953;51.650;-0.522;2022-10-16T04:34:25;10.02;82.98
68912;SHT31;55953;51.650;-0.522;2022-10-16T04:36:53;9.98;83.12
68912;SHT31;55953;51.650;-0.522;2022-10-16T04:39:21;9.97;83.26
68912;SHT31;55953;51.650;-0.522;2022-10-16T04:41:49;9.93;83.33
68912;SHT31;55953;51.650;-0.522;2022-10-16T04:44:17;9.93;83.37
68912;SHT31;55953;51.650;-0.522;2022-10-16T04:46:45;9.92;83.40
68912;SHT31;55953;51.650;-0.522;2022-10-16T04:49:13;9.89;83.61
68912;SHT31;55953;51.650;-0.522;2022-10-16T04:51:41;9.89;83.84
68912;SHT31;55953;51.650;-0.522;2022-10-16T04:54:09;9.87;83.73
68912;SHT31;55953;51.650;-0.522;2022-10-16T04:56:37;9.84;83.77
68912;SHT31;55953;51.650;-0.522;2022-10-16T04:59:14;9.85;83.88
68912;SHT31;55953;51.650;-0.522;2022-10-16T05:01:42;9.83;83.98
68912;SHT31;55953;51.650;-0.522;2022-10-16T05:04:11;9.83;83.94
68912;SHT31;55953;51.650;-0.522;2022-10-16T05:06:40;9.82;83.93
68912;SHT31;55953;51.650;-0.522;2022-10-16T05:09:09;9.79;84.04
68912;SHT31;55953;51.650;-0.522;2022-10-16T05:11:37;9.76;84.19
68912;SHT31;55953;51.650;-0.522;2022-10-16T05:14:05;9.77;84.07
68912;SHT31;55953;51.650;-0.522;2022-10-16T05:16:33;9.79;84.01
68912;SHT31;55953;51.650;-0.522;2022-10-16T05:19:01;9.78;84.08
68912;SHT31;55953;51.650;-0.522;2022-10-16T05:21:49;9.77;84.18
68912;SHT31;55953;51.650;-0.522;2022-10-16T05:24:17;9.75;84.27
68912;SHT31;55953;51.650;-0.522;2022-10-16T05:26:45;9.75;84.33
68912;SHT31;55953;51.650;-0.522;2022-10-16T05:29:12;9.75;84.19
68912;SHT31;55953;51.650;-0.522;2022-10-16T05:31:40;9.73;84.17
68912;SHT31;55953;51.650;-0.522;2022-10-16T05:34:08;9.72;84.26
68912;SHT31;55953;51.650;-0.522;2022-10-16T05:36:36;9.68;84.22
68912;SHT31;55953;51.650;-0.522;2022-10-16T05:39:04;9.68;84.34
68912;SHT31;55953;51.650;-0.522;2022-10-16T05:41:32;9.69;84.35
68912;SHT31;55953;51.650;-0.522;2022-10-16T05:44:03;9.65;84.45
68912;SHT31;55953;51.650;-0.522;2022-10-16T05:46:33;9.65;84.47
68912;SHT31;55953;51.650;-0.522;2022-10-16T05:49:01;9.63;84.47
68912;SHT31;55953;51.650;-0.522;2022-10-16T05:51:29;9.62;84.50
68912;SHT31;55953;51.650;-0.522;2022-10-16T05:53:57;9.62;84.46
68912;SHT31;55953;51.650;-0.522;2022-10-16T05:56:25;9.64;84.51
68912;SHT31;55953;51.650;-0.522;2022-10-16T05:58:53;9.62;84.54
68912;SHT31;55953;51.650;-0.522;2022-10-16T06:01:21;9.60;84.57
68912;SHT31;55953;51.650;-0.522;2022-10-16T06:03:51;9.57;84.63
68912;SHT31;55953;51.650;-0.522;2022-10-16T06:06:21;9.55;84.70
68912;SHT31;55953;51.650;-0.522;2022-10-16T06:08:54;9.55;84.79
68912;SHT31;55953;51.650;-0.522;2022-10-16T06:11:27;9.54;84.76
68912;SHT31;55953;51.650;-0.522;2022-10-16T06:13:58;9.51;84.74
68912;SHT31;55953;51.650;-0.522;2022-10-16T06:16:30;9.48;84.88
68912;SHT31;55953;51.650;-0.522;2022-10-16T06:18:58;9.47;84.91
68912;SHT31;55953;51.650;-0.522;2022-10-16T06:21:28;9.48;84.99
68912;SHT31;55953;51.650;-0.522;2022-10-16T06:23:57;9.45;84.96
68912;SHT31;55953;51.650;-0.522;2022-10-16T06:26:27;9.44;85.00
68912;SHT31;55953;51.650;-0.522;2022-10-16T06:28:57;9.44;85.06
68912;SHT31;55953;51.650;-0.522;2022-10-16T06:31:27;9.41;85.07
68912;SHT31;55953;51.650;-0.522;2022-10-16T06:33:58;9.40;85.08
68912;SHT31;55953;51.650;-0.522;2022-10-16T06:36:27;9.43;84.98
68912;SHT31;55953;51.650;-0.522;2022-10-16T06:38:55;9.42;84.88
68912;SHT31;55953;51.650;-0.522;2022-10-16T06:41:24;9.40;85.04
68912;SHT31;55953;51.650;-0.522;2022-10-16T06:43:52;9.43;84.91
68912;SHT31;55953;51.650;-0.522;2022-10-16T06:46:21;9.45;84.74
68912;SHT31;55953;51.650;-0.522;2022-10-16T06:48:54;9.49;84.69
68912;SHT31;55953;51.650;-0.522;2022-10-16T06:51:23;9.52;84.60
68912;SHT31;55953;51.650;-0.522;2022-10-16T06:53:53;9.53;84.41
68912;SHT31;55953;51.650;-0.522;2022-10-16T06:56:31;9.50;84.44
68912;SHT31;55953;51.650;-0.522;2022-10-16T06:59:00;9.52;84.54
68912;SHT31;55953;51.650;-0.522;2022-10-16T07:01:30;9.53;84.42
68912;SHT31;55953;51.650;-0.522;2022-10-16T07:04:00;9.56;84.45
68912;SHT31;55953;51.650;-0.522;2022-10-16T07:06:30;9.55;84.35
68912;SHT31;55953;51.650;-0.522;2022-10-16T07:09:02;9.59;84.41
68912;SHT31;55953;51.650;-0.522;2022-10-16T07:11:33;9.60;84.22
68912;SHT31;55953;51.650;-0.522;2022-10-16T07:14:02;9.59;84.23
68912;SHT31;55953;51.650;-0.522;2022-10-16T07:16:31;9.62;84.27
68912;SHT31;55953;51.650;-0.522;2022-10-16T07:19:01;9.63;84.16
68912;SHT31;55953;51.650;-0.522;2022-10-16T07:21:31;9.64;84.20
68912;SHT31;55953;51.650;-0.522;2022-10-16T07:24:05;9.74;84.16
68912;SHT31;55953;51.650;-0.522;2022-10-16T07:26:39;9.82;83.89
68912;SHT31;55953;51.650;-0.522;2022-10-16T07:29:41;9.86;83.96
68912;SHT31;55953;51.650;-0.522;2022-10-16T07:32:01;9.92;83.91
68912;SHT31;55953;51.650;-0.522;2022-10-16T07:34:29;9.93;83.87
68912;SHT31;55953;51.650;-0.522;2022-10-16T07:36:57;9.94;83.91
68912;SHT31;55953;51.650;-0.522;2022-10-16T07:39:25;9.98;83.85
68912;SHT31;55953;51.650;-0.522;2022-10-16T07:41:53;10.04;83.65
68912;SHT31;55953;51.650;-0.522;2022-10-16T07:44:21;10.04;83.54
68912;SHT31;55953;51.650;-0.522;2022-10-16T07:46:49;10.02;83.61
68912;SHT31;55953;51.650;-0.522;2022-10-16T07:49:17;10.04;83.69
68912;SHT31;55953;51.650;-0.522;2022-10-16T07:51:45;10.04;83.65
68912;SHT31;55953;51.650;-0.522;2022-10-16T07:54:13;10.07;83.69
68912;SHT31;55953;51.650;-0.522;2022-10-16T07:56:41;10.09;83.71
68912;SHT31;55953;51.650;-0.522;2022-10-16T07:59:10;10.09;83.76
68912;SHT31;55953;51.650;-0.522;2022-10-16T08:01:39;10.11;83.81
68912;SHT31;55953;51.650;-0.522;2022-10-16T08:04:07;10.15;83.81
68912;SHT31;55953;51.650;-0.522;2022-10-16T08:06:37;10.20;83.68
68912;SHT31;55953;51.650;-0.522;2022-10-16T08:09:07;10.26;83.69
68912;SHT31;55953;51.650;-0.522;2022-10-16T08:11:35;10.35;83.62
68912;SHT31;55953;51.650;-0.522;2022-10-16T08:14:03;10.42;83.59
68912;SHT31;55953;51.650;-0.522;2022-10-16T08:16:31;10.47;83.47
68912;SHT31;55953;51.650;-0.522;2022-10-16T08:18:59;10.53;83.34
68912;SHT31;55953;51.650;-0.522;2022-10-16T08:21:27;10.58;83.22
68912;SHT31;55953;51.650;-0.522;2022-10-16T08:23:55;10.62;83.16
68912;SHT31;55953;51.650;-0.522;2022-10-16T08:26:25;10.66;83.14
68912;SHT31;55953;51.650;-0.522;2022-10-16T08:28:55;10.79;83.05
68912;SHT31;55953;51.650;-0.522;2022-10-16T08:31:23;10.83;82.90
68912;SHT31;55953;51.650;-0.522;2022-10-16T08:33:54;10.88;82.79
68912;SHT31;55953;51.650;-0.522;2022-10-16T08:36:22;10.93;82.78
68912;SHT31;55953;51.650;-0.522;2022-10-16T08:38:50;10.97;82.66
68912;SHT31;55953;51.650;-0.522;2022-10-16T08:44:30;11.08;82.37
68912;SHT31;55953;51.650;-0.522;2022-10-16T08:47:20;11.14;82.23
68912;SHT31;55953;51.650;-0.522;2022-10-16T08:49:59;11.23;82.27
68912;SHT31;55953;51.650;-0.522;2022-10-16T08:52:38;11.28;82.16
68912;SHT31;55953;51.650;-0.522;2022-10-16T08:58:19;11.45;81.84
68912;SHT31;55953;51.650;-0.522;2022-10-16T09:01:01;11.55;81.62
68912;SHT31;55953;51.650;-0.522;2022-10-16T09:03:45;11.61;81.43
68912;SHT31;55953;51.650;-0.522;2022-10-16T09:06:59;11.65;81.01
68912;SHT31;55953;51.650;-0.522;2022-10-16T09:13:17;11.80;80.52
68912;SHT31;55953;51.650;-0.522;2022-10-16T09:21:46;12.01;80.10
68912;SHT31;55953;51.650;-0.522;2022-10-16T09:26:46;12.16;79.64
68912;SHT31;55953;51.650;-0.522;2022-10-16T09:29:15;12.21;79.43
68912;SHT31;55953;51.650;-0.522;2022-10-16T09:31:51;12.26;79.44
68912;SHT31;55953;51.650;-0.522;2022-10-16T09:34:35;12.30;78.90
68912;SHT31;55953;51.650;-0.522;2022-10-16T09:37:10;12.34;78.90
68912;SHT31;55953;51.650;-0.522;2022-10-16T09:39:53;12.38;78.85
68912;SHT31;55953;51.650;-0.522;2022-10-16T09:42:32;12.44;78.90
68912;SHT31;55953;51.650;-0.522;2022-10-16T09:45:04;12.49;78.74
68912;SHT31;55953;51.650;-0.522;2022-10-16T09:47:35;12.55;78.64
68912;SHT31;55953;51.650;-0.522;2022-10-16T09:53:10;12.69;78.26
68912;SHT31;55953;51.650;-0.522;2022-10-16T09:55:48;12.75;78.35
68912;SHT31;55953;51.650;-0.522;2022-10-16T09:58:17;12.80;78.27
68912;SHT31;55953;51.650;-0.522;2022-10-16T10:00:49;12.84;77.89
68912;SHT31;55953;51.650;-0.522;2022-10-16T10:03:41;12.90;77.91
68912;SHT31;55953;51.650;-0.522;2022-10-16T10:06:18;12.96;77.91
68912;SHT31;55953;51.650;-0.522;2022-10-16T10:08:58;13.05;78.04
68912;SHT31;55953;51.650;-0.522;2022-10-16T10:24:57;13.42;76.80
68912;SHT31;55953;51.650;-0.522;2022-10-16T10:27:32;13.49;76.42
68912;SHT31;55953;51.650;-0.522;2022-10-16T10:33:57;13.65;76.27
68912;SHT31;55953;51.650;-0.522;2022-10-16T10:36:40;13.64;76.03
68912;SHT31;55953;51.650;-0.522;2022-10-16T10:39:13;13.70;75.95
68912;SHT31;55953;51.650;-0.522;2022-10-16T10:48:38;13.78;75.23
68912;SHT31;55953;51.650;-0.522;2022-10-16T10:51:36;13.78;75.19
68912;SHT31;55953;51.650;-0.522;2022-10-16T10:54:56;13.78;74.77
68912;SHT31;55953;51.650;-0.522;2022-10-16T10:57:20;13.84;74.95
68912;SHT31;55953;51.650;-0.522;2022-10-16T11:00:06;13.90;74.34
68912;SHT31;55953;51.650;-0.522;2022-10-16T11:02:54;13.97;74.18
68912;SHT31;55953;51.650;-0.522;2022-10-16T11:08:53;14.02;74.31
68912;SHT31;55953;51.650;-0.522;2022-10-16T11:11:43;14.06;73.80
68912;SHT31;55953;51.650;-0.522;2022-10-16T11:14:26;14.14;73.73
68912;SHT31;55953;51.650;-0.522;2022-10-16T11:19:48;14.29;74.24
68912;SHT31;55953;51.650;-0.522;2022-10-16T11:36:07;14.50;71.87
68912;SHT31;55953;51.650;-0.522;2022-10-16T11:39:10;14.52;71.73
68912;SHT31;55953;51.650;-0.522;2022-10-16T11:47:54;14.74;71.40
68912;SHT31;55953;51.650;-0.522;2022-10-16T11:51:00;14.79;70.46
68912;SHT31;55953;51.650;-0.522;2022-10-16T11:53:59;14.81;70.95
68912;SHT31;55953;51.650;-0.522;2022-10-16T11:56:45;14.85;70.99
68912;SHT31;55953;51.650;-0.522;2022-10-16T12:07:54;14.97;70.74
68912;SHT31;55953;51.650;-0.522;2022-10-16T12:10:25;14.98;70.47
68912;SHT31;55953;51.650;-0.522;2022-10-16T12:12:59;14.99;70.18
68912;SHT31;55953;51.650;-0.522;2022-10-16T12:15:28;15.00;69.59
68912;SHT31;55953;51.650;-0.522;2022-10-16T12:18:23;15.01;69.29
68912;SHT31;55953;51.650;-0.522;2022-10-16T12:20:58;15.08;69.79
68912;SHT31;55953;51.650;-0.522;2022-10-16T12:23:33;15.18;69.80
68912;SHT31;55953;51.650;-0.522;2022-10-16T12:26:26;15.32;70.04
68912;SHT31;55953;51.650;-0.522;2022-10-16T12:29:14;15.46;69.64
68912;SHT31;55953;51.650;-0.522;2022-10-16T12:31:57;15.60;69.59
68912;SHT31;55953;51.650;-0.522;2022-10-16T12:34:37;15.73;69.31
68912;SHT31;55953;51.650;-0.522;2022-10-16T12:39:54;15.87;68.92
68912;SHT31;55953;51.650;-0.522;2022-10-16T12:44:55;16.01;68.45
68912;SHT31;55953;51.650;-0.522;2022-10-16T12:49:57;16.16;68.09
68912;SHT31;55953;51.650;-0.522;2022-10-16T12:55:21;16.17;68.22
68912;SHT31;55953;51.650;-0.522;2022-10-16T13:00:44;16.14;68.28
68912;SHT31;55953;51.650;-0.522;2022-10-16T13:06:38;16.15;68.22
68912;SHT31;55953;51.650;-0.522;2022-10-16T13:09:36;16.10;68.89
68912;SHT31;55953;51.650;-0.522;2022-10-16T13:12:25;16.09;68.55
68912;SHT31;55953;51.650;-0.522;2022-10-16T13:18:21;16.08;68.89
68912;SHT31;55953;51.650;-0.522;2022-10-16T13:27:35;16.13;69.11
68912;SHT31;55953;51.650;-0.522;2022-10-16T13:30:28;16.12;68.86
68912;SHT31;55953;51.650;-0.522;2022-10-16T13:35:46;16.14;69.04
68912;SHT31;55953;51.650;-0.522;2022-10-16T13:38:25;16.17;68.72
68912;SHT31;55953;51.650;-0.522;2022-10-16T13:43:34;16.23;68.00
68912;SHT31;55953;51.650;-0.522;2022-10-16T13:46:12;16.22;68.09
68912;SHT31;55953;51.650;-0.522;2022-10-16T13:48:56;16.24;68.61
68912;SHT31;55953;51.650;-0.522;2022-10-16T13:51:55;16.37;68.58
68912;SHT31;55953;51.650;-0.522;2022-10-16T13:54:25;16.59;68.30
68912;SHT31;55953;51.650;-0.522;2022-10-16T13:56:56;16.81;67.46
68912;SHT31;55953;51.650;-0.522;2022-10-16T13:59:52;16.86;66.79
68912;SHT31;55953;51.650;-0.522;2022-10-16T14:05:03;16.99;66.70
68912;SHT31;55953;51.650;-0.522;2022-10-16T14:07:37;17.10;66.68
68912;SHT31;55953;51.650;-0.522;2022-10-16T14:10:06;17.22;66.44
68912;SHT31;55953;51.650;-0.522;2022-10-16T14:12:56;17.26;66.59
68912;SHT31;55953;51.650;-0.522;2022-10-16T14:15:33;17.29;66.35
68912;SHT31;55953;51.650;-0.522;2022-10-16T14:18:04;17.27;65.94
68912;SHT31;55953;51.650;-0.522;2022-10-16T14:20:33;17.29;65.88
68912;SHT31;55953;51.650;-0.522;2022-10-16T14:23:18;17.26;66.14
68912;SHT31;55953;51.650;-0.522;2022-10-16T14:28:41;17.30;65.70
68912;SHT31;55953;51.650;-0.522;2022-10-16T14:31:22;17.28;65.46
68912;SHT31;55953;51.650;-0.522;2022-10-16T14:34:01;17.31;65.79
68912;SHT31;55953;51.650;-0.522;2022-10-16T14:36:29;17.29;66.13
68912;SHT31;55953;51.650;-0.522;2022-10-16T14:39:04;17.29;65.96
68912;SHT31;55953;51.650;-0.522;2022-10-16T14:41:46;17.34;65.93
68912;SHT31;55953;51.650;-0.522;2022-10-16T14:44:17;17.41;66.20
68912;SHT31;55953;51.650;-0.522;2022-10-16T14:46:48;17.42;66.68
68912;SHT31;55953;51.650;-0.522;2022-10-16T14:49:17;17.39;66.86
68912;SHT31;55953;51.650;-0.522;2022-10-16T14:51:48;17.28;65.96
68912;SHT31;55953;51.650;-0.522;2022-10-16T14:54:17;17.22;66.57
68912;SHT31;55953;51.650;-0.522;2022-10-16T14:56:53;17.15;66.31
68912;SHT31;55953;51.650;-0.522;2022-10-16T14:59:25;17.08;66.06
68912;SHT31;55953;51.650;-0.522;2022-10-16T15:02:14;16.99;66.32
68912;SHT31;55953;51.650;-0.522;2022-10-16T15:05:04;16.91;66.82
68912;SHT31;55953;51.650;-0.522;2022-10-16T15:08:01;16.86;66.92
68912;SHT31;55953;51.650;-0.522;2022-10-16T15:10:29;16.77;67.03
68912;SHT31;55953;51.650;-0.522;2022-10-16T15:13:00;16.66;66.90
68912;SHT31;55953;51.650;-0.522;2022-10-16T15:15:32;16.58;67.58
68912;SHT31;55953;51.650;-0.522;2022-10-16T15:18:12;16.51;68.00
68912;SHT31;55953;51.650;-0.522;2022-10-16T15:20:42;16.48;68.36
68912;SHT31;55953;51.650;-0.522;2022-10-16T15:23:14;16.45;68.50
68912;SHT31;55953;51.650;-0.522;2022-10-16T15:25:49;16.44;68.54
68912;SHT31;55953;51.650;-0.522;2022-10-16T15:28:19;16.41;68.81
68912;SHT31;55953;51.650;-0.522;2022-10-16T15:30:50;16.36;69.16
68912;SHT31;55953;51.650;-0.522;2022-10-16T15:33:21;16.30;68.92
68912;SHT31;55953;51.650;-0.522;2022-10-16T15:35:56;16.26;69.05
68912;SHT31;55953;51.650;-0.522;2022-10-16T15:38:24;16.22;69.35
68912;SHT31;55953;51.650;-0.522;2022-10-16T15:40:53;16.16;69.50
68912;SHT31;55953;51.650;-0.522;2022-10-16T15:43:22;16.16;69.79
68912;SHT31;55953;51.650;-0.522;2022-10-16T15:46:06;16.13;69.69
68912;SHT31;55953;51.650;-0.522;2022-10-16T15:48:41;16.13;69.93
68912;SHT31;55953;51.650;-0.522;2022-10-16T15:51:10;16.15;70.29
68912;SHT31;55953;51.650;-0.522;2022-10-16T15:53:38;16.06;70.46
68912;SHT31;55953;51.650;-0.522;2022-10-16T15:56:07;15.98;70.39
68912;SHT31;55953;51.650;-0.522;2022-10-16T15:58:39;15.96;70.57
68912;SHT31;55953;51.650;-0.522;2022-10-16T16:01:07;15.95;70.53
68912;SHT31;55953;51.650;-0.522;2022-10-16T16:03:37;15.93;70.74
68912;SHT31;55953;51.650;-0.522;2022-10-16T16:06:10;15.89;70.77
68912;SHT31;55953;51.650;-0.522;2022-10-16T16:08:41;15.85;70.93
68912;SHT31;55953;51.650;-0.522;2022-10-16T16:11:09;15.81;70.99
68912;SHT31;55953;51.650;-0.522;2022-10-16T16:13:41;15.75;71.45
68912;SHT31;55953;51.650;-0.522;2022-10-16T16:16:10;15.71;71.67
68912;SHT31;55953;51.650;-0.522;2022-10-16T16:18:42;15.68;71.94
68912;SHT31;55953;51.650;-0.522;2022-10-16T16:21:12;15.65;72.16
68912;SHT31;55953;51.650;-0.522;2022-10-16T16:23:40;15.63;72.16
68912;SHT31;55953;51.650;-0.522;2022-10-16T16:26:15;15.64;72.50
68912;SHT31;55953;51.650;-0.522;2022-10-16T16:28:53;15.69;72.51
68912;SHT31;55953;51.650;-0.522;2022-10-16T16:31:24;15.67;72.40
68912;SHT31;55953;51.650;-0.522;2022-10-16T16:33:55;15.66;72.72
68912;SHT31;55953;51.650;-0.522;2022-10-16T16:36:24;15.66;73.03
68912;SHT31;55953;51.650;-0.522;2022-10-16T16:38:53;15.63;73.09
68912;SHT31;55953;51.650;-0.522;2022-10-16T16:41:23;15.66;72.98
68912;SHT31;55953;51.650;-0.522;2022-10-16T16:43:53;15.62;73.19
68912;SHT31;55953;51.650;-0.522;2022-10-16T16:46:22;15.61;73.10
68912;SHT31;55953;51.650;-0.522;2022-10-16T16:48:50;15.61;73.13
68912;SHT31;55953;51.650;-0.522;2022-10-16T16:51:20;15.56;73.29
68912;SHT31;55953;51.650;-0.522;2022-10-16T16:53:49;15.48;73.72
68912;SHT31;55953;51.650;-0.522;2022-10-16T16:56:21;15.44;74.19
68912;SHT31;55953;51.650;-0.522;2022-10-16T16:58:50;15.37;75.03
68912;SHT31;55953;51.650;-0.522;2022-10-16T17:01:22;15.26;76.11
68912;SHT31;55953;51.650;-0.522;2022-10-16T17:03:53;15.14;76.45
68912;SHT31;55953;51.650;-0.522;2022-10-16T17:06:24;15.06;77.07
68912;SHT31;55953;51.650;-0.522;2022-10-16T17:09:00;14.97;77.75
68912;SHT31;55953;51.650;-0.522;2022-10-16T17:11:31;14.91;78.07
68912;SHT31;55953;51.650;-0.522;2022-10-16T17:13:59;14.88;78.17
68912;SHT31;55953;51.650;-0.522;2022-10-16T17:16:30;14.82;78.65
68912;SHT31;55953;51.650;-0.522;2022-10-16T17:19:02;14.77;78.59
68912;SHT31;55953;51.650;-0.522;2022-10-16T17:21:37;14.79;78.74
68912;SHT31;55953;51.650;-0.522;2022-10-16T17:24:05;14.76;78.85
68912;SHT31;55953;51.650;-0.522;2022-10-16T17:26:33;14.73;78.99
68912;SHT31;55953;51.650;-0.522;2022-10-16T17:29:05;14.74;79.17
68912;SHT31;55953;51.650;-0.522;2022-10-16T17:31:34;14.76;79.10
68912;SHT31;55953;51.650;-0.522;2022-10-16T17:34:04;14.80;79.12
68912;SHT31;55953;51.650;-0.522;2022-10-16T17:36:35;14.78;79.17
68912;SHT31;55953;51.650;-0.522;2022-10-16T17:39:06;14.74;79.43
68912;SHT31;55953;51.650;-0.522;2022-10-16T17:41:37;14.73;79.55
68912;SHT31;55953;51.650;-0.522;2022-10-16T17:44:06;14.70;79.67
68912;SHT31;55953;51.650;-0.522;2022-10-16T17:46:35;14.72;79.65
68912;SHT31;55953;51.650;-0.522;2022-10-16T17:49:08;14.72;79.81
68912;SHT31;55953;51.650;-0.522;2022-10-16T17:51:36;14.72;79.60
68912;SHT31;55953;51.650;-0.522;2022-10-16T17:54:05;14.74;79.64
68912;SHT31;55953;51.650;-0.522;2022-10-16T17:56:34;14.74;79.69
68912;SHT31;55953;51.650;-0.522;2022-10-16T17:59:02;14.76;79.67
68912;SHT31;55953;51.650;-0.522;2022-10-16T18:01:32;14.80;80.01